createdAt,value
2019-04-07T00:01:23.068Z,26.90
2019-04-07T00:03:49.676Z,28.83
2019-04-07T00:06:16.280Z,25.23
2019-04-07T00:08:43.250Z,24.60
2019-04-07T00:11:10.603Z,25.07
2019-04-07T00:13:39.034Z,26.57
2019-04-07T00:16:05.581Z,26.27
2019-04-07T00:18:32.567Z,28.30
2019-04-07T00:20:59.217Z,29.93
2019-04-07T00:23:25.899Z,26.17
2019-04-07T00:25:52.519Z,25.90
2019-04-07T00:28:19.633Z,26.43
2019-04-07T00:30:46.346Z,27.77
2019-04-07T00:33:13.363Z,30.80
2019-04-07T00:35:41.751Z,23.57
2019-04-07T00:38:08.375Z,25.53
2019-04-07T00:40:34.997Z,28.30
2019-04-07T00:43:01.595Z,26.60
2019-04-07T00:45:28.185Z,24.77
2019-04-07T00:47:54.767Z,27.17
2019-04-07T00:50:21.990Z,28.33
2019-04-07T00:52:49.168Z,30.63
2019-04-07T00:55:16.663Z,21.33
2019-04-07T00:57:44.089Z,25.13
2019-04-07T01:00:11.827Z,29.73
2019-04-07T01:02:38.821Z,28.70
2019-04-07T01:05:06.043Z,28.43
2019-04-07T01:07:33.434Z,26.33
2019-04-07T01:10:00.745Z,28.07
2019-04-07T01:12:27.357Z,29.83
2019-04-07T01:14:54.445Z,27.53
2019-04-07T01:17:21.561Z,28.70
2019-04-07T01:19:48.660Z,27.87
2019-04-07T01:22:15.687Z,28.90
2019-04-07T01:24:42.998Z,25.57
2019-04-07T01:27:10.433Z,26.03
2019-04-07T01:29:37.093Z,26.33
2019-04-07T01:32:04.042Z,30.47
2019-04-07T01:34:32.444Z,28.47
2019-04-07T01:36:59.789Z,28.97
2019-04-07T01:39:27.129Z,26.33
2019-04-07T01:42:15.371Z,25.73
2019-04-07T01:45:00.371Z,32.30
2019-04-07T01:47:33.301Z,29.97
2019-04-07T01:50:24.795Z,30.87
2019-04-07T01:53:02.549Z,26.87
2019-04-07T01:55:47.170Z,30.57
2019-04-07T01:58:42.831Z,28.80
2019-04-07T02:01:27.584Z,32.20
2019-04-07T02:04:14.301Z,30.80
2019-04-07T02:06:58.903Z,29.33
2019-04-07T02:09:34.688Z,28.17
2019-04-07T02:12:11.952Z,30.17
2019-04-07T02:14:45.534Z,33.50
2019-04-07T02:17:46.952Z,27.47
2019-04-07T02:20:38.786Z,28.63
2019-04-07T02:23:21.999Z,29.70
2019-04-07T02:26:06.102Z,29.53
2019-04-07T02:28:54.774Z,26.30
2019-04-07T02:31:40.134Z,29.80
2019-04-07T02:34:18.670Z,30.20
2019-04-07T02:37:07.781Z,29.57
2019-04-07T02:39:43.751Z,32.93
2019-04-07T02:42:30.396Z,29.27
2019-04-07T02:45:25.497Z,32.93
2019-04-07T02:48:14.837Z,33.50
2019-04-07T02:51:01.302Z,32.83
2019-04-07T02:53:48.065Z,31.47
2019-04-07T02:56:40.014Z,34.87
2019-04-07T02:59:16.185Z,28.87
2019-04-07T03:02:00.740Z,30.87
2019-04-07T03:04:56.738Z,28.77
2019-04-07T03:07:41.755Z,30.93
2019-04-07T03:10:27.788Z,31.87
2019-04-07T03:13:32.183Z,28.73
2019-04-07T03:16:11.861Z,30.10
2019-04-07T03:18:47.078Z,26.73
2019-04-07T03:21:33.353Z,27.73
2019-04-07T03:24:19.544Z,32.67
2019-04-07T03:27:10.104Z,28.63
2019-04-07T03:30:02.129Z,30.63
2019-04-07T03:32:49.300Z,29.07
2019-04-07T03:35:29.049Z,33.43
2019-04-07T03:38:07.854Z,28.13
2019-04-07T03:40:54.896Z,27.77
2019-04-07T03:43:35.999Z,25.20
2019-04-07T03:46:25.214Z,30.37
2019-04-07T03:48:57.998Z,29.47
2019-04-07T03:51:33.909Z,28.13
2019-04-07T03:54:19.136Z,31.23
2019-04-07T03:57:24.145Z,30.97
2019-04-07T04:00:10.498Z,32.73
2019-04-07T04:02:48.445Z,32.83
2019-04-07T04:05:47.702Z,29.30
2019-04-07T04:08:21.150Z,31.53
2019-04-07T04:11:14.824Z,30.53
2019-04-07T04:13:58.367Z,30.00
2019-04-07T04:16:34.063Z,26.90
2019-04-07T04:19:02.480Z,30.60
2019-04-07T04:21:30.819Z,30.50
2019-04-07T04:24:00.583Z,31.60
2019-04-07T04:26:28.966Z,31.63
2019-04-07T04:28:58.252Z,31.70
2019-04-07T04:31:25.683Z,29.53
2019-04-07T04:33:55.595Z,31.37
2019-04-07T04:36:27.291Z,27.63
2019-04-07T04:38:55.513Z,31.13
2019-04-07T04:41:23.143Z,32.20
2019-04-07T04:43:50.127Z,32.17
2019-04-07T04:46:17.058Z,31.17
2019-04-07T04:48:44.031Z,32.40
2019-04-07T04:51:11.786Z,31.17
2019-04-07T04:53:38.440Z,32.47
2019-04-07T04:56:05.592Z,27.93
2019-04-07T04:58:32.662Z,29.60
2019-04-07T05:00:59.705Z,31.77
2019-04-07T05:03:27.189Z,29.77
2019-04-07T05:05:54.548Z,36.00
2019-04-07T05:08:21.336Z,28.77
2019-04-07T05:10:48.986Z,28.60
2019-04-07T05:13:15.992Z,32.27
2019-04-07T05:15:43.372Z,33.53
2019-04-07T05:18:12.043Z,28.20
2019-04-07T05:20:39.783Z,33.80
2019-04-07T05:23:06.784Z,32.23
2019-04-07T05:25:33.788Z,28.27
2019-04-07T05:28:01.218Z,30.67
2019-04-07T05:30:28.238Z,33.57
2019-04-07T05:32:55.529Z,31.73
2019-04-07T05:35:22.687Z,31.20
2019-04-07T05:38:00.136Z,29.43
2019-04-07T05:40:18.018Z,33.83
2019-04-07T05:42:44.611Z,29.83
2019-04-07T05:45:11.540Z,27.80
2019-04-07T05:47:43.164Z,24.47
2019-04-07T05:50:07.719Z,31.67
2019-04-07T05:52:39.056Z,29.87
2019-04-07T05:55:02.883Z,28.63
2019-04-07T05:57:33.378Z,27.10
2019-04-07T05:59:58.076Z,31.67
2019-04-07T06:02:24.604Z,28.53
2019-04-07T06:04:53.485Z,30.13
2019-04-07T06:07:20.267Z,30.07
2019-04-07T06:09:49.931Z,26.03
2019-04-07T06:12:16.098Z,25.10
2019-04-07T06:14:45.904Z,30.43
2019-04-07T06:17:11.137Z,29.00
2019-04-07T06:19:41.088Z,25.03
2019-04-07T06:22:07.917Z,29.13
2019-04-07T06:24:41.297Z,24.77
2019-04-07T06:27:08.579Z,28.87
2019-04-07T06:29:36.600Z,28.23
2019-04-07T06:32:05.227Z,28.93
2019-04-07T06:34:33.781Z,28.63
2019-04-07T06:37:00.611Z,31.57
2019-04-07T06:39:27.751Z,28.23
2019-04-07T06:41:54.716Z,26.53
2019-04-07T06:44:22.988Z,28.17
2019-04-07T06:47:04.694Z,25.03
2019-04-07T06:49:53.651Z,27.27
2019-04-07T06:52:38.678Z,28.20
2019-04-07T06:55:33.017Z,26.57
2019-04-07T06:58:14.552Z,28.57
2019-04-07T07:01:06.911Z,26.30
2019-04-07T07:03:53.818Z,27.43
2019-04-07T07:06:47.183Z,24.07
2019-04-07T07:09:29.220Z,27.23
2019-04-07T07:12:31.656Z,25.43
2019-04-07T07:15:19.246Z,27.20
2019-04-07T07:18:04.651Z,29.23
2019-04-07T07:20:49.691Z,25.73
2019-04-07T07:23:28.850Z,31.87
2019-04-07T07:25:56.537Z,27.63
2019-04-07T07:28:23.715Z,30.27
2019-04-07T07:30:52.538Z,28.57
2019-04-07T07:33:19.056Z,30.47
2019-04-07T07:35:49.111Z,28.23
2019-04-07T07:38:14.882Z,32.07
2019-04-07T07:40:42.674Z,31.07
2019-04-07T07:43:09.795Z,32.70
2019-04-07T07:45:37.175Z,31.60
2019-04-07T07:48:06.355Z,31.60
2019-04-07T07:50:36.757Z,32.53
2019-04-07T07:53:01.408Z,31.23
2019-04-07T07:55:30.621Z,33.07
2019-04-07T07:57:59.010Z,30.07
2019-04-07T08:00:25.681Z,35.77
2019-04-07T08:02:53.797Z,37.83
2019-04-07T08:05:22.757Z,37.13
2019-04-07T08:07:50.451Z,36.47
2019-04-07T08:10:18.614Z,31.83
2019-04-07T08:12:47.214Z,39.03
2019-04-07T08:15:13.874Z,38.77
2019-04-07T08:17:40.977Z,34.17
2019-04-07T08:20:07.846Z,43.80
2019-04-07T08:22:40.728Z,38.30
2019-04-07T08:25:02.913Z,42.67
2019-04-07T08:27:31.049Z,36.77
2019-04-07T08:29:58.297Z,41.63
2019-04-07T08:32:28.068Z,42.23
2019-04-07T08:34:54.763Z,36.17
2019-04-07T08:37:21.900Z,35.93
2019-04-07T08:39:48.711Z,37.97
2019-04-07T08:42:18.619Z,41.97
2019-04-07T08:44:45.129Z,37.83
2019-04-07T08:47:22.169Z,39.33
2019-04-07T08:49:48.257Z,38.63
2019-04-07T08:52:15.278Z,45.07
2019-04-07T08:54:42.221Z,38.10
2019-04-07T08:57:09.540Z,41.37
2019-04-07T08:59:39.871Z,41.27
2019-04-07T09:02:07.513Z,39.87
2019-04-07T09:04:34.459Z,44.57
2019-04-07T09:07:03.029Z,45.03
2019-04-07T09:09:34.056Z,38.83
2019-04-07T09:11:59.290Z,37.77
2019-04-07T09:14:25.939Z,44.13
2019-04-07T09:17:15.431Z,40.77
2019-04-07T09:20:06.258Z,38.23
2019-04-07T09:22:54.978Z,39.90
2019-04-07T09:25:41.112Z,39.10
2019-04-07T09:28:27.373Z,51.47
2019-04-07T09:31:12.122Z,41.23
2019-04-07T09:33:55.026Z,42.47
2019-04-07T09:36:44.101Z,41.87
2019-04-07T09:39:34.529Z,42.73
2019-04-07T09:42:29.166Z,45.73
2019-04-07T09:45:24.074Z,42.23
2019-04-07T09:48:17.715Z,44.40
2019-04-07T09:50:50.332Z,40.57
2019-04-07T09:53:25.742Z,37.30
2019-04-07T09:56:14.662Z,47.17
2019-04-07T09:58:59.207Z,46.90
2019-04-07T10:01:32.998Z,47.60
2019-04-07T10:04:07.797Z,42.17
2019-04-07T10:06:52.290Z,39.27
2019-04-07T10:09:44.704Z,47.50
2019-04-07T10:12:28.246Z,39.53
2019-04-07T10:15:20.491Z,45.17
2019-04-07T10:17:57.617Z,45.07
2019-04-07T10:20:35.838Z,44.53
2019-04-07T10:23:21.940Z,43.80
2019-04-07T10:25:58.638Z,44.57
2019-04-07T10:28:39.961Z,43.17
2019-04-07T10:31:28.361Z,51.23
2019-04-07T10:34:17.235Z,45.73
2019-04-07T10:37:18.888Z,43.77
2019-04-07T10:40:19.584Z,43.53
2019-04-07T10:43:11.702Z,41.70
2019-04-07T10:45:50.894Z,42.13
2019-04-07T10:48:45.720Z,42.80
2019-04-07T10:51:29.336Z,37.53
2019-04-07T10:54:22.200Z,42.00
2019-04-07T10:56:54.293Z,46.27
2019-04-07T10:59:40.251Z,48.00
2019-04-07T11:02:20.641Z,45.87
2019-04-07T11:07:59.240Z,48.87
2019-04-07T11:10:44.197Z,43.07
2019-04-07T11:13:40.329Z,43.63
2019-04-07T11:16:16.251Z,42.70
2019-04-07T11:19:04.484Z,44.00
2019-04-07T11:21:50.243Z,40.70
2019-04-07T11:24:35.214Z,45.57
2019-04-07T11:27:21.624Z,45.63
2019-04-07T11:30:11.469Z,46.20
2019-04-07T11:32:57.680Z,48.40
2019-04-07T11:35:37.403Z,40.63
2019-04-07T11:38:19.101Z,44.90
2019-04-07T11:41:04.612Z,44.47
2019-04-07T11:43:49.077Z,47.43
2019-04-07T11:46:41.930Z,43.83
2019-04-07T11:49:13.791Z,45.67
2019-04-07T11:51:49.347Z,43.50
2019-04-07T11:54:35.722Z,47.03
2019-04-07T11:57:21.526Z,41.27
2019-04-07T12:00:10.588Z,42.43
2019-04-07T12:02:45.553Z,45.73
2019-04-07T12:05:28.713Z,47.33
2019-04-07T12:08:13.996Z,43.80
2019-04-07T12:11:04.668Z,45.93
2019-04-07T12:13:47.956Z,43.43
2019-04-07T12:16:27.644Z,41.80
2019-04-07T12:19:11.673Z,44.10
2019-04-07T12:21:58.292Z,46.30
2019-04-07T12:24:45.492Z,45.83
2019-04-07T12:27:22.473Z,44.87
2019-04-07T12:30:11.465Z,45.53
2019-04-07T12:33:00.429Z,40.43
2019-04-07T12:35:55.170Z,45.23
2019-04-07T12:38:45.013Z,45.63
2019-04-07T12:41:27.745Z,38.23
2019-04-07T12:44:23.421Z,43.13
2019-04-07T12:47:13.409Z,40.63
2019-04-07T12:49:59.428Z,40.60
2019-04-07T12:53:03.439Z,43.67
2019-04-07T12:56:08.083Z,39.07
2019-04-07T12:58:50.517Z,38.17
2019-04-07T13:01:28.118Z,41.57
2019-04-07T13:04:20.034Z,41.00
2019-04-07T13:07:21.808Z,41.93
2019-04-07T13:10:14.301Z,37.37
2019-04-07T13:13:13.405Z,39.47
2019-04-07T13:16:03.438Z,42.07
2019-04-07T13:18:52.752Z,43.80
2019-04-07T13:21:27.893Z,39.60
2019-04-07T13:24:13.930Z,41.73
2019-04-07T13:26:47.767Z,39.47
2019-04-07T13:29:21.491Z,37.37
2019-04-07T13:32:10.351Z,37.07
2019-04-07T13:35:11.724Z,37.10
2019-04-07T13:37:45.535Z,41.87
2019-04-07T13:40:22.705Z,41.20
2019-04-07T13:43:09.085Z,36.70
2019-04-07T13:48:43.250Z,39.35
2019-04-07T13:51:28.006Z,45.15
2019-04-07T13:54:17.825Z,38.00
2019-04-07T13:57:04.470Z,38.50
2019-04-07T13:59:49.243Z,41.17
2019-04-07T14:02:37.824Z,39.07
2019-04-07T14:05:25.918Z,35.55
2019-04-07T14:08:16.084Z,41.03
2019-04-07T14:10:51.327Z,39.10
2019-04-07T14:13:40.407Z,33.63
2019-04-07T14:16:30.163Z,37.63
2019-04-07T14:19:15.385Z,37.53
2019-04-07T14:21:55.985Z,33.30
2019-04-07T14:24:41.486Z,40.20
2019-04-07T14:27:30.972Z,35.70
2019-04-07T14:30:10.306Z,41.40
2019-04-07T14:32:56.761Z,36.68
2019-04-07T14:35:43.027Z,33.77
2019-04-07T14:38:26.566Z,35.83
2019-04-07T14:41:13.881Z,37.60
2019-04-07T14:43:59.453Z,35.58
2019-04-07T14:46:58.948Z,36.53
2019-04-07T14:49:36.832Z,36.23
2019-04-07T14:52:25.271Z,37.43
2019-04-07T14:55:17.248Z,37.80
2019-04-07T14:58:02.078Z,37.93
2019-04-07T15:00:49.091Z,42.17
2019-04-07T15:03:16.918Z,34.95
2019-04-07T15:05:46.203Z,37.93
2019-04-07T15:08:36.619Z,33.67
2019-04-07T15:11:15.263Z,30.43
2019-04-07T15:13:41.836Z,34.18
2019-04-07T15:16:11.177Z,33.20
2019-04-07T15:18:38.198Z,33.30
2019-04-07T15:21:05.682Z,33.00
2019-04-07T15:23:33.379Z,35.20
2019-04-07T15:26:00.383Z,28.90
2019-04-07T15:28:29.767Z,32.87
2019-04-07T15:30:56.823Z,30.90
2019-04-07T15:33:24.196Z,30.93
2019-04-07T15:35:52.316Z,31.90
2019-04-07T15:38:23.839Z,32.38
2019-04-07T15:40:48.196Z,32.67
2019-04-07T15:43:15.825Z,27.90
2019-04-07T15:45:44.451Z,28.27
2019-04-07T15:48:11.351Z,30.15
2019-04-07T15:50:38.337Z,26.82
2019-04-07T15:53:14.968Z,28.23
2019-04-07T15:55:49.197Z,26.17
2019-04-07T15:58:09.653Z,26.50
2019-04-07T16:00:36.253Z,24.50
2019-04-07T16:03:04.185Z,24.13
2019-04-07T16:05:38.024Z,24.90
2019-04-07T16:07:59.846Z,23.57
2019-04-07T16:10:26.533Z,21.73
2019-04-07T16:12:54.357Z,23.93
2019-04-07T16:15:21.980Z,22.33
2019-04-07T16:17:49.118Z,21.47
2019-04-07T16:20:23.282Z,19.17
2019-04-07T16:22:46.584Z,24.57
2019-04-07T16:25:13.222Z,21.85
2019-04-07T16:27:40.050Z,21.37
2019-04-07T16:30:07.461Z,19.80
2019-04-07T16:32:34.190Z,19.17
2019-04-07T16:35:01.770Z,19.27
2019-04-07T16:37:29.438Z,20.32
2019-04-07T16:39:57.996Z,21.83
2019-04-07T16:42:25.440Z,23.80
2019-04-07T16:44:52.656Z,20.85
2019-04-07T16:47:24.449Z,21.67
2019-04-07T16:49:48.982Z,17.33
2019-04-07T16:52:15.762Z,20.30
2019-04-07T16:54:44.972Z,17.20
2019-04-07T16:57:12.979Z,21.13
2019-04-07T16:59:42.778Z,18.37
2019-04-07T17:02:09.166Z,20.47
2019-04-07T17:04:36.495Z,18.77
2019-04-07T17:07:05.344Z,19.87
2019-04-07T17:09:34.105Z,24.27
2019-04-07T17:12:00.632Z,19.00
2019-04-07T17:14:27.335Z,21.57
2019-04-07T17:16:54.662Z,20.97
2019-04-07T17:19:21.521Z,23.57
2019-04-07T17:21:48.996Z,19.07
2019-04-07T17:24:16.324Z,20.47
2019-04-07T17:26:43.535Z,21.93
2019-04-07T17:29:10.907Z,22.60
2019-04-07T17:31:38.030Z,21.73
2019-04-07T17:34:07.426Z,20.00
2019-04-07T17:36:34.279Z,21.63
2019-04-07T17:39:20.570Z,20.00
2019-04-07T17:41:49.875Z,18.90
2019-04-07T17:44:28.611Z,22.03
2019-04-07T17:47:13.707Z,31.57
2019-04-07T17:50:12.697Z,34.97
2019-04-07T17:52:58.048Z,35.47
2019-04-07T17:55:44.221Z,38.67
2019-04-07T17:58:32.066Z,38.17
2019-04-07T18:01:36.598Z,40.17
2019-04-07T18:04:42.937Z,43.70
2019-04-07T18:07:27.466Z,42.60
2019-04-07T18:10:16.673Z,44.13
2019-04-07T18:12:51.433Z,42.10
2019-04-07T18:15:46.754Z,37.47
2019-04-07T18:18:44.807Z,43.50
2019-04-07T18:21:25.749Z,49.77
2019-04-07T18:24:09.094Z,43.70
2019-04-07T18:26:45.110Z,45.17
2019-04-07T18:29:21.238Z,39.57
2019-04-07T18:32:25.314Z,43.17
2019-04-07T18:35:02.528Z,42.90
2019-04-07T18:37:42.267Z,38.60
2019-04-07T18:40:29.546Z,38.70
2019-04-07T18:43:19.907Z,41.57
2019-04-07T18:46:09.871Z,41.07
2019-04-07T18:49:06.781Z,46.63
2019-04-07T18:51:58.981Z,46.77
2019-04-07T18:55:06.619Z,45.07
2019-04-07T18:57:52.016Z,42.23
2019-04-07T19:00:50.669Z,45.07
2019-04-07T19:03:36.210Z,47.17
2019-04-07T19:06:22.355Z,41.63
2019-04-07T19:09:08.522Z,43.50
2019-04-07T19:12:14.095Z,49.23
2019-04-07T19:15:03.741Z,48.87
2019-04-07T19:17:46.129Z,46.93
2019-04-07T19:20:47.980Z,50.57
2019-04-07T19:23:49.075Z,52.73
2019-04-07T19:26:33.560Z,50.13
2019-04-07T19:29:28.679Z,50.37
2019-04-07T19:32:27.183Z,51.60
2019-04-07T19:35:13.444Z,49.30
2019-04-07T19:38:08.770Z,50.67
2019-04-07T19:40:49.201Z,49.60
2019-04-07T19:43:43.703Z,52.70
2019-04-07T19:46:30.636Z,50.43
2019-04-07T19:49:20.413Z,51.50
2019-04-07T19:52:10.722Z,50.00
2019-04-07T19:54:56.065Z,50.80
2019-04-07T19:57:42.847Z,50.77
2019-04-07T20:00:26.111Z,45.43
2019-04-07T20:03:10.110Z,47.33
2019-04-07T20:06:14.702Z,49.70
2019-04-07T20:09:19.598Z,47.70
2019-04-07T20:12:06.457Z,50.40
2019-04-07T20:15:04.497Z,50.33
2019-04-07T20:17:41.535Z,44.13
2019-04-07T20:20:14.676Z,50.23
2019-04-07T20:23:04.421Z,49.60
2019-04-07T20:25:46.198Z,49.70
2019-04-07T20:28:25.159Z,47.50
2019-04-07T20:31:21.900Z,47.00
2019-04-07T20:34:02.229Z,52.57
2019-04-07T20:36:38.601Z,51.30
2019-04-07T20:39:09.415Z,48.33
2019-04-07T20:41:58.840Z,53.80
2019-04-07T20:44:44.788Z,51.70
2019-04-07T20:47:29.639Z,44.47
2019-04-07T20:50:15.493Z,50.77
2019-04-07T20:52:53.603Z,55.37
2019-04-07T20:55:27.645Z,51.57
2019-04-07T20:58:42.167Z,50.57
2019-04-07T21:01:18.725Z,52.30
2019-04-07T21:04:03.225Z,52.87
2019-04-07T21:06:49.623Z,48.50
2019-04-07T21:09:23.613Z,52.67
2019-04-07T21:12:25.248Z,49.60
2019-04-07T21:15:20.884Z,49.23
2019-04-07T21:17:50.219Z,50.80
2019-04-07T21:20:36.737Z,51.93
2019-04-07T21:23:18.624Z,49.03
2019-04-07T21:26:13.850Z,49.23
2019-04-07T21:28:58.881Z,51.37
2019-04-07T21:31:42.816Z,49.47
2019-04-07T21:34:38.573Z,49.27
2019-04-07T21:37:15.181Z,47.83
2019-04-07T21:40:07.566Z,51.50
2019-04-07T21:42:54.505Z,49.37
2019-04-07T21:45:45.704Z,50.80
2019-04-07T21:48:16.384Z,53.33
2019-04-07T21:51:02.333Z,48.80
2019-04-07T21:53:48.650Z,51.17
2019-04-07T21:56:38.983Z,53.03
2019-04-07T21:59:33.575Z,51.77
2019-04-07T22:02:35.203Z,56.40
2019-04-07T22:08:12.904Z,47.97
2019-04-07T22:10:36.059Z,49.93
2019-04-07T22:13:04.935Z,51.53
2019-04-07T22:15:43.240Z,55.73
2019-04-07T22:18:06.286Z,56.80
2019-04-07T22:20:32.315Z,50.77
2019-04-07T22:23:02.849Z,49.63
2019-04-07T22:25:32.534Z,51.73
2019-04-07T22:28:01.598Z,51.90
2019-04-07T22:30:30.611Z,61.40
2019-04-07T22:32:59.765Z,56.83
2019-04-07T22:35:27.135Z,51.40
2019-04-07T22:37:54.771Z,55.83
2019-04-07T22:40:22.525Z,53.93
2019-04-07T22:42:50.158Z,55.13
2019-04-07T22:45:21.822Z,57.17
2019-04-07T22:47:51.539Z,56.03
2019-04-07T22:50:15.949Z,54.07
2019-04-07T22:52:47.308Z,62.43
2019-04-07T22:55:12.193Z,54.67
2019-04-07T22:57:38.967Z,53.17
2019-04-07T23:00:06.375Z,58.40
2019-04-07T23:02:33.051Z,54.83
2019-04-07T23:04:59.759Z,57.23
2019-04-07T23:07:26.367Z,51.40
2019-04-07T23:09:53.813Z,56.33
2019-04-07T23:12:20.983Z,54.67
2019-04-07T23:14:47.725Z,59.20
2019-04-07T23:17:15.388Z,55.87
2019-04-07T23:19:43.843Z,57.27
2019-04-07T23:22:10.352Z,57.00
2019-04-07T23:24:36.964Z,58.27
2019-04-07T23:27:04.130Z,56.07
2019-04-07T23:29:30.813Z,57.73
2019-04-07T23:31:57.650Z,55.60
2019-04-07T23:34:25.347Z,50.70
2019-04-07T23:36:52.449Z,54.17
2019-04-07T23:39:19.541Z,61.37
2019-04-07T23:41:46.194Z,57.40
2019-04-07T23:44:13.011Z,56.00
2019-04-07T23:46:39.750Z,55.53
2019-04-07T23:49:06.370Z,53.30
2019-04-07T23:51:32.930Z,56.67
2019-04-07T23:54:00.679Z,54.30
2019-04-07T23:56:27.344Z,60.03
2019-04-07T23:58:54.195Z,49.17
